Washington Boro, Pennsylvania
Current Conditions -  °F | °C
As of 6:53 PM on Wednesday 28 Jan 2015 (Local Time) from KLNS Reporting Station
Clear Clear  
Wind Chill: -9°   Ceiling: Unl
Heat Index: -4°   Visibility: 10mi
Dew Point: -15°   Wind: 8mph
Humidity: 44%   Direction: 310°NW
Pressure: 30.25"   Gusts: NA
Location:  39.99°N, 76.47°W
Report Text: KLNS 282353Z 31007KT 10SM CLR M04/M15 A3025 RMK AO2 SLP248 T10441150 11006 21050 51021
Loading
Personal Weather Stations






























Interactive Weather Map New forecast layout! Learn more

10-Day Weather Forecast

Advertisements
Track Severe Weather on mobile